Time;durP1;ratioP1;P1;durP2;ratioP2;P2;SDS_P1;SDS_P2;PMS_P1;PMS_P2;Temp;Humidity;BMP_temperature;BMP_pressure;BME280_temperature;BME280_humidity;BME280_pressure;Samples;Min_cycle;Max_cycle;Signal;HPM_P1;HPM_P2
2022/06/28 00:02:08;;;;;;;2.60;2.40;;;20.10;67.00;;;;;;5049268;28;20341;-61
2022/06/28 00:04:34;;;;;;;2.55;2.35;;;20.10;67.20;;;;;;5044157;28;20088;-61
2022/06/28 00:07:00;;;;;;;5.15;2.67;;;20.10;67.40;;;;;;5043878;28;20119;-62
2022/06/28 00:09:25;;;;;;;3.80;2.58;;;20.10;67.40;;;;;;5045810;28;20078;-61
2022/06/28 00:11:51;;;;;;;5.97;2.28;;;20.10;67.40;;;;;;5044979;28;20101;-62
2022/06/28 00:17:01;;;;;;;2.75;2.00;;;20.10;67.20;;;;;;5037802;28;20036;-61
2022/06/28 00:19:27;;;;;;;2.25;2.05;;;20.10;67.20;;;;;;5049422;28;20029;-61
2022/06/28 00:21:54;;;;;;;2.92;2.10;;;20.10;67.40;;;;;;5037283;28;20030;-62
2022/06/28 00:24:20;;;;;;;2.30;2.00;;;20.10;67.40;;;;;;5036068;28;20095;-61
2022/06/28 00:26:46;;;;;;;4.18;2.13;;;20.10;67.40;;;;;;5050022;28;20496;-61
2022/06/28 00:29:12;;;;;;;4.45;1.88;;;20.20;67.30;;;;;;5047035;28;20472;-60
2022/06/28 00:31:38;;;;;;;3.17;2.20;;;20.20;67.30;;;;;;5051756;28;20068;-61
2022/06/28 00:34:04;;;;;;;3.65;2.10;;;20.20;67.30;;;;;;5045819;28;20073;-60
2022/06/28 00:36:30;;;;;;;3.60;2.28;;;20.20;67.40;;;;;;5046782;28;20029;-61
2022/06/28 00:38:56;;;;;;;2.50;2.30;;;20.20;67.40;;;;;;5044738;28;20031;-62
2022/06/28 00:41:21;;;;;;;5.25;2.38;;;20.20;67.50;;;;;;5052758;28;20028;-62
2022/06/28 00:43:47;;;;;;;2.53;2.33;;;20.20;67.50;;;;;;5047745;28;20029;-60
2022/06/28 00:46:14;;;;;;;3.17;2.25;;;20.20;67.50;;;;;;5049814;28;20025;-60
2022/06/28 00:48:40;;;;;;;2.80;1.98;;;20.30;67.50;;;;;;5048240;28;20443;-62
2022/06/28 00:51:08;;;;;;;2.85;2.20;;;20.30;67.50;;;;;;5045873;28;20037;-61
2022/06/28 00:53:34;;;;;;;2.45;2.25;;;20.30;67.60;;;;;;5044474;28;20034;-60
2022/06/28 00:56:00;;;;;;;2.28;2.03;;;20.30;67.30;;;;;;5045703;28;20088;-61
2022/06/28 00:58:25;;;;;;;2.75;1.83;;;20.30;67.20;;;;;;5047665;28;20029;-61
2022/06/28 01:00:51;;;;;;;2.30;2.10;;;20.30;67.20;;;;;;5051467;28;20472;-61
2022/06/28 01:03:20;;;;;;;3.55;2.00;;;20.30;67.10;;;;;;5044431;28;20087;-62
2022/06/28 01:05:46;;;;;;;2.30;2.10;;;20.20;67.20;;;;;;5044611;28;20022;-62
2022/06/28 01:08:12;;;;;;;2.90;2.40;;;20.20;67.10;;;;;;5054247;28;20022;-61
2022/06/28 01:10:39;;;;;;;3.28;2.22;;;20.20;67.10;;;;;;5044604;28;20067;-61
2022/06/28 01:13:06;;;;;;;2.50;2.20;;;20.20;67.10;;;;;;5047378;28;20022;-61
2022/06/28 01:15:32;;;;;;;9.15;2.13;;;20.10;67.00;;;;;;5045417;28;20033;-61
2022/06/28 01:18:02;;;;;;;2.42;2.20;;;20.10;67.00;;;;;;5042547;28;20052;-62
2022/06/28 01:20:28;;;;;;;3.45;2.45;;;20.10;67.20;;;;;;5044119;28;20031;-64
2022/06/28 01:22:54;;;;;;;5.88;1.80;;;20.10;67.00;;;;;;5041381;28;20041;-60
2022/06/28 01:25:22;;;;;;;2.60;2.03;;;20.10;67.00;;;;;;5053830;28;20024;-62
2022/06/28 01:27:47;;;;;;;3.40;2.20;;;20.00;67.10;;;;;;5042539;28;20091;-62
2022/06/28 01:30:14;;;;;;;2.58;1.90;;;20.00;67.20;;;;;;5041075;28;20076;-62
2022/06/28 01:32:40;;;;;;;3.33;2.10;;;20.00;67.10;;;;;;5042594;28;20067;-60
2022/06/28 01:35:07;;;;;;;3.75;1.77;;;19.90;67.20;;;;;;5046021;28;20542;-61
2022/06/28 01:37:33;;;;;;;3.47;2.20;;;19.90;67.30;;;;;;5038388;28;20022;-61
2022/06/28 01:39:59;;;;;;;2.78;2.13;;;19.90;67.30;;;;;;5040476;28;20030;-61
2022/06/28 01:42:30;;;;;;;2.53;2.13;;;19.90;67.20;;;;;;5042072;28;20029;-61
2022/06/28 01:44:57;;;;;;;2.38;2.05;;;19.90;67.40;;;;;;5042693;28;20030;-61
2022/06/28 01:47:25;;;;;;;2.38;1.98;;;19.90;67.30;;;;;;5041355;28;20029;-62
2022/06/28 01:49:50;;;;;;;3.20;2.10;;;19.80;67.20;;;;;;5044250;28;20112;-61
2022/06/28 01:52:17;;;;;;;2.72;2.33;;;19.80;67.20;;;;;;5039845;28;20075;-60
2022/06/28 01:54:43;;;;;;;2.88;1.95;;;19.80;67.30;;;;;;5053524;28;20021;-61
2022/06/28 01:57:09;;;;;;;3.53;2.20;;;19.80;67.30;;;;;;5041430;28;20040;-62
2022/06/28 01:59:37;;;;;;;4.80;2.17;;;19.80;67.20;;;;;;5041365;28;20029;-61
2022/06/28 02:02:04;;;;;;;3.10;2.08;;;19.70;67.10;;;;;;5046977;28;20025;-62
2022/06/28 02:04:30;;;;;;;2.92;2.10;;;19.70;67.10;;;;;;5048341;28;20026;-61
2022/06/28 02:06:58;;;;;;;4.28;2.13;;;19.60;67.00;;;;;;5050438;28;20082;-61
2022/06/28 02:09:24;;;;;;;4.25;1.92;;;19.60;67.00;;;;;;5043161;28;20650;-60
2022/06/28 02:11:51;;;;;;;1.77;1.67;;;19.60;67.10;;;;;;5047390;28;20369;-60
2022/06/28 02:14:18;;;;;;;2.97;1.90;;;19.50;67.10;;;;;;5045616;28;20040;-61
2022/06/28 02:16:44;;;;;;;2.47;1.80;;;19.50;67.10;;;;;;5047315;28;20030;-60
2022/06/28 02:19:09;;;;;;;2.45;1.70;;;19.50;67.10;;;;;;5036946;28;20381;-61
2022/06/28 02:21:40;;;;;;;1.88;1.65;;;19.50;67.20;;;;;;5041619;28;20052;-60
2022/06/28 02:24:07;;;;;;;4.90;1.50;;;19.40;67.40;;;;;;5042994;28;20538;-60
2022/06/28 02:26:34;;;;;;;3.78;1.67;;;19.40;67.20;;;;;;5048573;28;20057;-61
2022/06/28 02:29:00;;;;;;;3.17;1.60;;;19.30;67.30;;;;;;5046719;28;20437;-61
2022/06/28 02:31:26;;;;;;;2.22;1.52;;;19.30;67.40;;;;;;5048524;28;20120;-62
2022/06/28 02:33:52;;;;;;;2.25;1.70;;;19.30;67.30;;;;;;5046291;28;20045;-60
2022/06/28 02:41:44;;;;;;;1.98;1.50;;;19.20;67.20;;;;;;5036908;28;20041;-61
2022/06/28 02:44:10;;;;;;;1.90;1.50;;;19.20;67.10;;;;;;5042443;28;20148;-60
2022/06/28 02:46:36;;;;;;;3.63;1.65;;;19.20;67.20;;;;;;5044223;28;20084;-60
2022/06/28 02:49:02;;;;;;;1.40;1.30;;;19.10;67.20;;;;;;5046017;28;20029;-61
2022/06/28 02:51:27;;;;;;;1.48;1.38;;;19.00;67.30;;;;;;5050511;28;20139;-61
2022/06/28 02:53:53;;;;;;;1.40;1.30;;;19.00;68.40;;;;;;5038570;28;20779;-60
2022/06/28 02:56:20;;;;;;;3.33;1.23;;;18.90;67.90;;;;;;5038143;28;20053;-61
2022/06/28 02:58:45;;;;;;;1.40;1.20;;;18.80;68.00;;;;;;5047776;28;20030;-61
2022/06/28 03:01:11;;;;;;;1.40;1.20;;;18.80;68.20;;;;;;5052732;28;20060;-60
2022/06/28 03:03:37;;;;;;;2.03;1.00;;;18.80;68.40;;;;;;5045581;28;20022;-61
2022/06/28 03:06:04;;;;;;;4.85;1.48;;;18.70;68.60;;;;;;5055611;28;20037;-61
2022/06/28 03:08:30;;;;;;;2.88;1.80;;;18.70;68.70;;;;;;5050089;28;20030;-61
2022/06/28 03:10:56;;;;;;;2.42;1.42;;;18.70;68.70;;;;;;5040850;28;20056;-62
2022/06/28 03:13:21;;;;;;;3.25;1.58;;;18.80;68.70;;;;;;5042953;28;20029;-62
2022/06/28 03:15:47;;;;;;;1.50;1.40;;;18.70;68.60;;;;;;5047932;28;20045;-60
2022/06/28 03:18:13;;;;;;;2.88;2.00;;;18.70;68.10;;;;;;5046016;28;20040;-62
2022/06/28 03:20:39;;;;;;;6.70;1.90;;;18.80;68.60;;;;;;5047176;28;20120;-62
2022/06/28 03:23:04;;;;;;;2.15;1.95;;;18.70;68.50;;;;;;5042643;28;20033;-61
2022/06/28 03:25:31;;;;;;;5.13;1.85;;;18.70;68.50;;;;;;4994127;28;20022;-61
2022/06/28 03:27:57;;;;;;;2.67;1.73;;;18.80;68.60;;;;;;5048102;28;20045;-61
2022/06/28 03:30:23;;;;;;;2.90;1.45;;;18.70;68.50;;;;;;5045936;28;20037;-60
2022/06/28 03:32:49;;;;;;;7.05;1.60;;;18.70;68.60;;;;;;5049869;28;20104;-60
2022/06/28 03:35:15;;;;;;;1.45;1.00;;;18.70;68.60;;;;;;5053009;28;20048;-60
2022/06/28 03:37:41;;;;;;;1.48;1.00;;;18.70;68.70;;;;;;5039530;28;20030;-61
2022/06/28 03:40:08;;;;;;;1.10;1.00;;;18.70;68.80;;;;;;5055412;28;20028;-59
2022/06/28 03:42:33;;;;;;;1.27;0.93;;;18.60;68.70;;;;;;5073146;28;20380;-59
2022/06/28 03:44:59;;;;;;;1.60;0.93;;;18.60;68.70;;;;;;5047126;28;20025;-60
2022/06/28 03:47:25;;;;;;;4.22;0.90;;;18.60;68.80;;;;;;5043177;28;20039;-59
2022/06/28 03:49:51;;;;;;;1.00;1.00;;;18.60;69.00;;;;;;5048794;28;20454;-61
2022/06/28 03:52:17;;;;;;;2.17;1.20;;;18.60;69.20;;;;;;5032575;28;20090;-60
2022/06/28 03:54:42;;;;;;;1.25;1.10;;;18.60;69.40;;;;;;5049430;28;20538;-60
2022/06/28 03:57:09;;;;;;;3.05;1.23;;;18.60;69.40;;;;;;5051801;28;20677;-61
2022/06/28 03:59:36;;;;;;;6.90;1.20;;;18.60;69.30;;;;;;5045460;28;20030;-60
2022/06/28 04:02:03;;;;;;;5.40;1.23;;;18.70;69.40;;;;;;5051892;28;20035;-61
2022/06/28 04:04:29;;;;;;;2.17;1.35;;;18.70;69.30;;;;;;5045582;28;20025;-59
2022/06/28 04:06:55;;;;;;;4.32;1.20;;;18.80;69.90;;;;;;5044166;28;20085;-61
2022/06/28 04:09:21;;;;;;;3.30;1.20;;;18.80;69.10;;;;;;5050557;28;20025;-61
2022/06/28 04:11:46;;;;;;;4.90;1.40;;;18.80;68.90;;;;;;5047514;28;20041;-59
2022/06/28 04:14:13;;;;;;;7.03;1.30;;;18.80;69.00;;;;;;5043196;28;20033;-60
2022/06/28 04:16:41;;;;;;;3.00;1.58;;;18.90;69.00;;;;;;5048657;28;20028;-61
2022/06/28 04:19:07;;;;;;;3.65;1.25;;;18.90;69.10;;;;;;5038522;28;20048;-59
2022/06/28 04:21:33;;;;;;;2.78;1.30;;;19.00;69.10;;;;;;5045010;28;20040;-62
2022/06/28 04:23:59;;;;;;;3.97;1.58;;;19.10;69.20;;;;;;5048886;28;20026;-60
2022/06/28 04:26:24;;;;;;;3.10;1.48;;;19.10;69.30;;;;;;5044769;28;20040;-61
2022/06/28 04:28:50;;;;;;;2.10;1.20;;;19.20;69.40;;;;;;5047132;28;20041;-61
2022/06/28 04:31:17;;;;;;;1.65;1.20;;;19.30;69.30;;;;;;5047902;28;20030;-60
2022/06/28 04:33:43;;;;;;;2.83;1.38;;;19.40;69.30;;;;;;5041765;28;20029;-61
2022/06/28 04:36:09;;;;;;;3.38;1.40;;;19.50;69.10;;;;;;5057397;28;20029;-60
2022/06/28 04:38:35;;;;;;;1.88;1.42;;;19.50;69.10;;;;;;5032439;28;20033;-61
2022/06/28 04:41:01;;;;;;;1.30;1.20;;;19.60;69.20;;;;;;5045562;28;20053;-60
2022/06/28 04:43:26;;;;;;;1.38;1.27;;;19.70;69.00;;;;;;5042458;28;20029;-60
2022/06/28 04:45:52;;;;;;;1.05;1.02;;;19.70;68.80;;;;;;5051506;28;20026;-61
2022/06/28 04:48:18;;;;;;;2.28;1.05;;;19.80;68.50;;;;;;5047325;28;20040;-59
2022/06/28 04:50:44;;;;;;;4.88;1.33;;;19.80;68.20;;;;;;5046464;28;20037;-61
2022/06/28 04:53:09;;;;;;;1.85;1.02;;;19.90;68.10;;;;;;5042835;28;20029;-59
2022/06/28 04:55:36;;;;;;;1.90;1.10;;;19.90;67.90;;;;;;5046056;28;20037;-61
2022/06/28 04:58:02;;;;;;;1.58;1.30;;;19.90;67.90;;;;;;5046627;28;20025;-61
2022/06/28 05:00:29;;;;;;;4.35;1.23;;;19.90;67.80;;;;;;5041652;28;20956;-61
2022/06/28 05:02:55;;;;;;;1.42;1.10;;;19.90;67.80;;;;;;5049191;28;20033;-61
2022/06/28 05:05:21;;;;;;;2.33;1.33;;;19.90;67.90;;;;;;5048003;28;20057;-62
2022/06/28 05:07:47;;;;;;;11.15;1.40;;;20.00;68.00;;;;;;5048142;28;20037;-61
2022/06/28 05:10:13;;;;;;;4.95;1.30;;;20.10;68.00;;;;;;5047329;28;20132;-62
2022/06/28 05:12:39;;;;;;;5.70;1.60;;;20.10;68.00;;;;;;5045209;28;20449;-59
2022/06/28 05:15:05;;;;;;;4.60;1.83;;;20.20;67.90;;;;;;5044027;28;20033;-61
2022/06/28 05:17:31;;;;;;;7.45;1.60;;;20.30;67.80;;;;;;5047253;28;20045;-60
2022/06/28 05:19:56;;;;;;;2.92;1.35;;;20.40;67.70;;;;;;5048876;28;20431;-61
2022/06/28 05:22:22;;;;;;;4.93;1.40;;;20.50;67.70;;;;;;5046995;28;20036;-59
2022/06/28 05:24:48;;;;;;;1.50;1.40;;;20.50;67.60;;;;;;5051331;28;20024;-58
2022/06/28 05:27:14;;;;;;;3.17;1.52;;;20.70;67.40;;;;;;5042585;28;20049;-60
2022/06/28 05:29:39;;;;;;;3.78;1.80;;;20.70;68.00;;;;;;5038046;28;20025;-60
2022/06/28 05:32:05;;;;;;;1.90;1.40;;;20.80;67.00;;;;;;5045805;28;20389;-60
2022/06/28 05:34:31;;;;;;;6.35;1.58;;;20.90;66.90;;;;;;5047494;28;20109;-59
2022/06/28 05:36:57;;;;;;;3.20;1.45;;;20.90;67.20;;;;;;5038964;28;20417;-61
2022/06/28 05:39:22;;;;;;;2.00;1.55;;;21.00;66.90;;;;;;5047677;28;20056;-61
2022/06/28 05:41:48;;;;;;;3.90;1.45;;;21.10;66.70;;;;;;5049854;28;20032;-61
2022/06/28 05:44:15;;;;;;;2.75;1.50;;;21.20;66.60;;;;;;5047213;28;20029;-61
2022/06/28 05:46:40;;;;;;;2.65;1.45;;;21.40;66.50;;;;;;5040877;28;20052;-60
2022/06/28 05:49:07;;;;;;;3.13;1.50;;;21.50;66.00;;;;;;5056802;28;20029;-60
2022/06/28 05:51:32;;;;;;;3.78;1.60;;;21.60;65.40;;;;;;5044264;28;20064;-61
2022/06/28 05:53:58;;;;;;;6.95;1.80;;;21.70;65.10;;;;;;5042923;28;20041;-61
2022/06/28 05:56:24;;;;;;;1.92;1.48;;;21.70;65.10;;;;;;5047931;28;20042;-60
2022/06/28 05:58:50;;;;;;;5.07;1.58;;;21.80;66.00;;;;;;5045009;28;20033;-61
2022/06/28 06:01:15;;;;;;;5.00;1.65;;;21.90;65.20;;;;;;5044032;28;20057;-59
2022/06/28 06:03:41;;;;;;;2.40;1.60;;;22.00;64.50;;;;;;5046988;28;20041;-62
2022/06/28 06:06:07;;;;;;;4.97;1.80;;;22.20;64.10;;;;;;5043407;28;20033;-60
2022/06/28 06:08:35;;;;;;;4.13;1.60;;;22.30;63.30;;;;;;5046055;28;20048;-60
2022/06/28 06:11:02;;;;;;;3.08;1.77;;;22.30;62.80;;;;;;5050014;28;20030;-60
2022/06/28 06:13:28;;;;;;;2.40;1.63;;;22.30;62.60;;;;;;5041465;28;20025;-60
2022/06/28 06:15:53;;;;;;;4.60;1.40;;;22.30;62.50;;;;;;5038040;28;20030;-60
2022/06/28 06:18:19;;;;;;;2.67;1.52;;;22.30;63.10;;;;;;5044662;28;20022;-60
2022/06/28 06:20:45;;;;;;;3.13;1.60;;;22.40;63.20;;;;;;5051035;28;20109;-61
2022/06/28 06:23:10;;;;;;;4.55;2.03;;;22.50;63.00;;;;;;5050080;28;20105;-61
2022/06/28 06:25:36;;;;;;;3.67;2.00;;;22.60;62.90;;;;;;5044736;28;20022;-60
2022/06/28 06:28:01;;;;;;;6.63;1.60;;;22.70;62.60;;;;;;5052038;28;20054;-60
2022/06/28 06:30:27;;;;;;;3.15;1.30;;;22.90;62.10;;;;;;5052356;28;20037;-61
2022/06/28 06:32:53;;;;;;;4.00;1.52;;;23.10;61.20;;;;;;5048654;28;20025;-60
2022/06/28 06:35:19;;;;;;;2.53;1.25;;;23.10;60.80;;;;;;5054051;28;20029;-60
2022/06/28 06:37:44;;;;;;;3.50;1.45;;;23.20;60.60;;;;;;5047519;28;20034;-61
2022/06/28 06:40:10;;;;;;;3.60;1.58;;;23.30;60.30;;;;;;5049010;28;20038;-61
2022/06/28 06:42:36;;;;;;;1.52;1.00;;;23.30;59.80;;;;;;5053805;28;20028;-59
2022/06/28 06:45:02;;;;;;;2.72;1.17;;;23.30;59.40;;;;;;5040608;28;20060;-61
2022/06/28 06:47:27;;;;;;;3.47;1.45;;;23.40;59.10;;;;;;5047916;28;20037;-60
2022/06/28 06:49:53;;;;;;;2.60;1.45;;;23.30;58.80;;;;;;5045604;28;20029;-59
2022/06/28 06:52:19;;;;;;;1.85;1.20;;;23.40;59.00;;;;;;5045662;28;20396;-62
2022/06/28 06:54:44;;;;;;;4.05;1.40;;;23.40;59.00;;;;;;5052076;28;20093;-62
2022/06/28 06:57:10;;;;;;;3.38;1.25;;;23.40;58.70;;;;;;5046245;28;20089;-61
2022/06/28 06:59:36;;;;;;;4.05;1.42;;;23.40;58.80;;;;;;5045067;28;20036;-61
2022/06/28 07:02:02;;;;;;;1.83;1.08;;;23.50;58.90;;;;;;5048842;28;20029;-59
2022/06/28 07:04:27;;;;;;;6.22;1.50;;;23.50;58.70;;;;;;5049411;28;20034;-60
2022/06/28 07:06:55;;;;;;;3.20;1.20;;;23.50;58.40;;;;;;5048051;28;20033;-60
2022/06/28 07:09:22;;;;;;;2.67;1.45;;;23.50;58.30;;;;;;5046587;28;20049;-61
2022/06/28 07:11:48;;;;;;;3.90;1.40;;;23.50;58.30;;;;;;5046351;28;20045;-61
2022/06/28 07:14:14;;;;;;;1.80;1.27;;;23.40;58.20;;;;;;5034329;28;20033;-60
2022/06/28 07:16:39;;;;;;;2.63;1.20;;;23.30;58.20;;;;;;5044413;28;20037;-60
2022/06/28 07:19:05;;;;;;;1.90;1.25;;;23.30;58.30;;;;;;5044632;28;20030;-60
2022/06/28 07:21:31;;;;;;;2.97;1.27;;;23.30;58.30;;;;;;5035758;28;20515;-60
2022/06/28 07:23:56;;;;;;;4.38;1.30;;;23.30;58.20;;;;;;5048720;28;20036;-60
2022/06/28 07:26:23;;;;;;;4.80;1.13;;;23.20;58.00;;;;;;5050414;28;20049;-61
2022/06/28 07:28:49;;;;;;;6.00;1.17;;;23.20;58.00;;;;;;5043018;28;20053;-60
2022/06/28 07:31:15;;;;;;;2.42;1.00;;;23.10;58.10;;;;;;5047522;28;20045;-60
2022/06/28 07:33:42;;;;;;;7.18;1.25;;;23.10;58.10;;;;;;5045154;28;20041;-60
2022/06/28 07:36:08;;;;;;;1.85;1.10;;;23.00;58.40;;;;;;5053013;28;20029;-61
2022/06/28 07:38:33;;;;;;;2.30;1.17;;;23.00;58.50;;;;;;5043128;28;20052;-61
2022/06/28 07:41:00;;;;;;;3.40;1.40;;;22.90;58.70;;;;;;5048515;28;20041;-60
2022/06/28 07:43:25;;;;;;;3.78;1.30;;;22.90;59.20;;;;;;5045182;28;20040;-60
2022/06/28 07:45:52;;;;;;;5.72;1.50;;;22.80;59.50;;;;;;5044481;28;20054;-61
2022/06/28 07:48:19;;;;;;;5.00;1.20;;;22.80;59.60;;;;;;5054649;28;20506;-60
2022/06/28 07:53:33;;;;;;;3.35;1.50;;;22.80;59.90;;;;;;5043905;28;20040;-59
2022/06/28 07:55:59;;;;;;;2.47;1.25;;;22.80;60.20;;;;;;5044169;28;20057;-60
2022/06/28 07:58:25;;;;;;;6.72;1.60;;;22.70;60.30;;;;;;5046741;28;20116;-59
2022/06/28 08:00:51;;;;;;;3.90;0.98;;;22.70;60.80;;;;;;5043009;28;20356;-58
2022/06/28 08:03:17;;;;;;;2.95;1.35;;;22.60;61.20;;;;;;5054438;28;20033;-59
2022/06/28 08:05:43;;;;;;;3.35;1.20;;;22.60;61.80;;;;;;5049899;28;20028;-59
2022/06/28 08:08:09;;;;;;;1.45;1.00;;;22.50;61.90;;;;;;5044602;28;20029;-59
2022/06/28 08:10:34;;;;;;;1.83;1.00;;;22.50;61.90;;;;;;5045250;28;20077;-59
2022/06/28 08:13:00;;;;;;;1.65;1.00;;;22.40;61.90;;;;;;5041000;28;20040;-59
2022/06/28 08:15:26;;;;;;;2.15;0.95;;;22.40;62.40;;;;;;5046299;28;20022;-60
2022/06/28 08:17:53;;;;;;;1.52;1.02;;;22.30;62.30;;;;;;5045077;28;20056;-59
2022/06/28 08:20:18;;;;;;;2.92;1.00;;;22.30;61.90;;;;;;5036095;28;20029;-60
2022/06/28 08:22:44;;;;;;;1.30;1.02;;;22.30;62.00;;;;;;5033747;28;20029;-59
2022/06/28 08:25:10;;;;;;;1.55;1.13;;;22.30;62.50;;;;;;5039830;28;20040;-59
2022/06/28 08:27:36;;;;;;;2.97;1.08;;;22.30;62.40;;;;;;5045415;28;20452;-60
2022/06/28 08:30:01;;;;;;;3.65;1.15;;;22.30;62.50;;;;;;5037355;28;20021;-60
2022/06/28 08:32:27;;;;;;;2.15;1.15;;;22.40;62.70;;;;;;5045214;28;20109;-59
2022/06/28 08:34:53;;;;;;;1.35;1.10;;;22.40;63.00;;;;;;5042538;28;20056;-61
2022/06/28 08:37:19;;;;;;;1.15;1.00;;;22.60;63.40;;;;;;5058621;28;20064;-59
2022/06/28 08:39:45;;;;;;;4.07;1.30;;;22.80;63.30;;;;;;5041882;28;20030;-59
2022/06/28 08:42:12;;;;;;;2.95;1.13;;;23.00;62.60;;;;;;5028931;28;20147;-60
2022/06/28 08:44:38;;;;;;;1.50;1.17;;;23.30;61.40;;;;;;5024427;28;20036;-60
2022/06/28 08:47:04;;;;;;;2.92;1.60;;;23.50;61.70;;;;;;5035224;28;20036;-59
2022/06/28 08:49:48;;;;;;;1.73;1.27;;;23.70;60.90;;;;;;5026396;28;20045;-59
2022/06/28 08:52:14;;;;;;;2.13;1.10;;;23.90;59.20;;;;;;5024878;28;20133;-59
2022/06/28 08:54:41;;;;;;;2.80;1.40;;;24.00;59.90;;;;;;5025136;28;20127;-60
2022/06/28 08:57:07;;;;;;;1.65;1.17;;;24.20;58.90;;;;;;5027786;28;20021;-59
2022/06/28 08:59:35;;;;;;;2.55;1.23;;;24.30;58.50;;;;;;5035107;28;20159;-60
2022/06/28 09:02:05;;;;;;;1.38;1.20;;;24.40;57.70;;;;;;5037866;28;20277;-60
2022/06/28 09:04:32;;;;;;;1.83;1.17;;;24.40;57.30;;;;;;5026042;28;20399;-60
2022/06/28 09:06:57;;;;;;;1.30;1.10;;;24.40;57.20;;;;;;5026487;28;20049;-60
2022/06/28 09:09:23;;;;;;;1.40;1.08;;;24.40;57.10;;;;;;5025509;28;20029;-60
2022/06/28 09:11:50;;;;;;;1.85;1.15;;;24.50;57.60;;;;;;5025377;28;20052;-60
2022/06/28 09:14:29;;;;;;;2.75;1.20;;;24.50;57.80;;;;;;5029273;28;20022;-60
2022/06/28 09:16:57;;;;;;;0.90;0.90;;;24.60;57.50;;;;;;5037592;28;20035;-60
2022/06/28 09:19:38;;;;;;;2.78;1.00;;;24.70;57.20;;;;;;5026677;28;20818;-60
2022/06/28 09:22:04;;;;;;;0.82;0.82;;;24.80;56.80;;;;;;5025616;28;20030;-60
2022/06/28 09:24:30;;;;;;;1.33;1.00;;;25.00;56.60;;;;;;5024565;28;20033;-60
2022/06/28 09:27:06;;;;;;;1.45;0.90;;;25.10;56.80;;;;;;5028084;28;20267;-61
2022/06/28 09:29:49;;;;;;;0.80;0.80;;;25.30;55.60;;;;;;5024179;28;20026;-60
2022/06/28 09:32:15;;;;;;;1.13;0.82;;;25.40;54.50;;;;;;5025744;28;20033;-61
2022/06/28 09:35:03;;;;;;;5.95;1.17;;;25.60;55.80;;;;;;5022877;28;20096;-60
2022/06/28 09:37:47;;;;;;;2.55;0.90;;;25.60;52.10;;;;;;5023717;28;20030;-60
2022/06/28 09:40:15;;;;;;;2.40;1.10;;;25.60;53.80;;;;;;5026202;28;20029;-60
2022/06/28 09:42:43;;;;;;;1.90;1.10;;;25.70;54.40;;;;;;5027912;28;20018;-60
2022/06/28 09:45:10;;;;;;;2.30;1.25;;;25.70;54.30;;;;;;5035275;28;20029;-60
2022/06/28 09:47:45;;;;;;;1.80;0.80;;;25.80;53.30;;;;;;5027467;28;20036;-61
2022/06/28 09:50:12;;;;;;;1.13;0.98;;;25.80;53.90;;;;;;5030069;28;20025;-61
2022/06/28 09:52:42;;;;;;;1.67;1.00;;;26.00;54.00;;;;;;5029824;28;20030;-60
2022/06/28 09:55:08;;;;;;;1.40;0.88;;;26.00;53.80;;;;;;5048153;28;20034;-60
2022/06/28 09:57:34;;;;;;;1.10;0.77;;;26.10;53.40;;;;;;5038382;28;20045;-60
2022/06/28 10:00:00;;;;;;;1.50;0.90;;;26.20;53.20;;;;;;5030110;28;20030;-60
2022/06/28 10:02:27;;;;;;;1.15;0.80;;;26.30;52.30;;;;;;5029914;28;20691;-61
2022/06/28 10:04:54;;;;;;;1.35;1.00;;;26.30;52.10;;;;;;5029477;28;20021;-59
2022/06/28 10:07:23;;;;;;;0.60;0.60;;;26.30;51.90;;;;;;5028943;28;20788;-61
2022/06/28 10:09:49;;;;;;;3.28;0.95;;;26.30;51.90;;;;;;5028013;28;20057;-61
2022/06/28 10:15:02;;;;;;;9.02;0.90;;;26.40;52.20;;;;;;5029306;28;20088;-60
2022/06/28 10:17:29;;;;;;;1.92;0.82;;;26.40;52.40;;;;;;5030241;28;20211;-61
2022/06/28 10:19:57;;;;;;;2.33;0.70;;;26.40;51.70;;;;;;5034685;28;20085;-61
2022/06/28 10:22:23;;;;;;;1.80;0.80;;;26.40;51.10;;;;;;5032516;28;20029;-61
2022/06/28 10:24:55;;;;;;;1.52;0.90;;;26.40;51.30;;;;;;5028553;28;20034;-62
2022/06/28 10:27:21;;;;;;;2.08;1.00;;;26.50;50.80;;;;;;5030423;28;20046;-62
2022/06/28 10:30:05;;;;;;;5.30;0.63;;;26.40;51.00;;;;;;5028570;28;20029;-61
2022/06/28 10:33:14;;;;;;;0.65;0.65;;;26.50;50.90;;;;;;5020668;28;20072;-60
2022/06/28 10:35:43;;;;;;;1.60;0.75;;;26.60;51.10;;;;;;5027775;28;20034;-62
2022/06/28 10:38:08;;;;;;;1.92;1.00;;;26.60;50.70;;;;;;5028837;28;20491;-61
2022/06/28 10:40:47;;;;;;;1.98;0.90;;;26.60;50.90;;;;;;5030371;28;20029;-61
2022/06/28 10:43:33;;;;;;;2.95;1.10;;;26.60;50.60;;;;;;5028714;28;20044;-61
2022/06/28 10:46:10;;;;;;;3.28;0.95;;;26.70;51.30;;;;;;5072932;28;20685;-60
2022/06/28 10:48:49;;;;;;;0.77;0.75;;;26.70;50.80;;;;;;5042234;28;20120;-60
2022/06/28 10:51:16;;;;;;;1.50;0.80;;;26.70;49.40;;;;;;5058891;28;20037;-61
2022/06/28 10:54:06;;;;;;;1.92;0.80;;;26.70;50.00;;;;;;5051044;28;20052;-61
2022/06/28 10:56:41;;;;;;;1.50;0.90;;;26.70;49.10;;;;;;5042083;28;20026;-60
2022/06/28 10:59:09;;;;;;;1.73;1.25;;;26.70;49.80;;;;;;5029638;28;20033;-61
2022/06/28 11:01:43;;;;;;;2.60;0.77;;;26.70;50.20;;;;;;5027658;28;20032;-61
2022/06/28 11:04:18;;;;;;;1.10;0.80;;;26.70;50.10;;;;;;5027474;28;20037;-61
2022/06/28 11:06:50;;;;;;;2.22;0.68;;;26.80;51.00;;;;;;5029477;28;20037;-60
2022/06/28 11:09:20;;;;;;;4.15;1.25;;;26.90;51.00;;;;;;5027164;28;20022;-60
2022/06/28 11:12:05;;;;;;;0.73;0.70;;;27.00;50.10;;;;;;5028790;28;20054;-60
2022/06/28 11:14:32;;;;;;;2.50;0.90;;;27.10;48.70;;;;;;5028149;28;20119;-60
2022/06/28 11:16:59;;;;;;;5.68;0.93;;;27.20;48.80;;;;;;5027878;28;20069;-61
2022/06/28 11:19:25;;;;;;;1.25;0.88;;;27.20;49.20;;;;;;5027946;28;20048;-60
2022/06/28 11:21:55;;;;;;;2.03;0.80;;;27.30;48.50;;;;;;5046636;28;20029;-60
2022/06/28 11:24:23;;;;;;;2.00;0.80;;;27.30;48.60;;;;;;5033921;28;20029;-60
2022/06/28 11:29:34;;;;;;;4.68;0.80;;;27.30;47.90;;;;;;5027323;28;20044;-60
2022/06/28 11:32:00;;;;;;;1.60;0.90;;;27.30;47.70;;;;;;5029408;28;20046;-60
2022/06/28 11:34:26;;;;;;;0.95;0.80;;;27.30;48.40;;;;;;5026820;28;20040;-60
2022/06/28 11:36:57;;;;;;;2.65;0.88;;;27.30;48.40;;;;;;5027975;28;20036;-60
2022/06/28 11:39:24;;;;;;;1.08;0.70;;;27.40;48.20;;;;;;5025837;28;20101;-61
2022/06/28 11:41:52;;;;;;;4.55;0.90;;;27.40;48.00;;;;;;5030115;28;20111;-60
2022/06/28 11:44:21;;;;;;;1.80;1.00;;;27.50;47.80;;;;;;5023206;28;21496;-60
2022/06/28 11:46:48;;;;;;;0.80;0.80;;;27.50;47.50;;;;;;5029630;28;20022;-60
2022/06/28 11:49:31;;;;;;;1.70;0.88;;;27.50;47.70;;;;;;5029055;28;20052;-61
2022/06/28 11:51:56;;;;;;;0.85;0.73;;;27.50;45.10;;;;;;5036158;28;20033;-60
2022/06/28 11:54:23;;;;;;;2.63;0.80;;;27.50;46.70;;;;;;5030628;28;20087;-60
2022/06/28 11:56:49;;;;;;;6.40;0.80;;;27.40;46.90;;;;;;5028069;28;20030;-60
2022/06/28 11:59:15;;;;;;;2.10;0.98;;;27.30;47.10;;;;;;5027212;28;20031;-61
2022/06/28 12:01:42;;;;;;;3.58;0.90;;;27.40;47.90;;;;;;5026983;28;20041;-60
2022/06/28 12:04:09;;;;;;;2.55;1.00;;;27.40;48.00;;;;;;5028072;28;20041;-61
2022/06/28 12:06:39;;;;;;;3.03;0.80;;;27.40;48.10;;;;;;5028236;28;20033;-61
2022/06/28 12:09:07;;;;;;;2.95;0.73;;;27.50;48.30;;;;;;5031795;28;20025;-61
2022/06/28 12:11:50;;;;;;;1.42;0.90;;;27.60;47.80;;;;;;5031696;28;20034;-61
2022/06/28 12:14:18;;;;;;;1.08;0.80;;;27.70;46.80;;;;;;5024365;28;20048;-61
2022/06/28 12:17:04;;;;;;;2.65;0.70;;;27.80;47.00;;;;;;5036298;28;20029;-61
2022/06/28 12:19:39;;;;;;;0.73;0.60;;;27.90;44.60;;;;;;5042679;28;20033;-62
2022/06/28 12:22:04;;;;;;;0.50;0.50;;;28.00;45.50;;;;;;5042826;28;20032;-61
2022/06/28 12:24:49;;;;;;;4.28;0.60;;;28.00;46.40;;;;;;5041253;28;20037;-60
2022/06/28 12:27:21;;;;;;;1.30;0.63;;;28.20;45.70;;;;;;5047256;28;20083;-61
2022/06/28 12:29:48;;;;;;;0.68;0.55;;;28.30;45.90;;;;;;5039522;28;20033;-61
2022/06/28 12:32:14;;;;;;;1.67;0.70;;;28.40;46.70;;;;;;5054755;28;20033;-60
2022/06/28 12:34:40;;;;;;;2.17;0.90;;;28.60;45.60;;;;;;5049465;28;20037;-60
2022/06/28 12:37:08;;;;;;;1.20;0.70;;;28.60;44.50;;;;;;5050702;28;20025;-61
2022/06/28 12:39:35;;;;;;;2.00;0.73;;;28.70;44.90;;;;;;5041670;28;20034;-60
2022/06/28 12:42:01;;;;;;;1.58;0.88;;;28.70;43.50;;;;;;5053103;28;20048;-61
2022/06/28 12:44:27;;;;;;;2.30;0.60;;;28.70;44.30;;;;;;5050129;28;20080;-60
2022/06/28 12:46:53;;;;;;;1.25;0.70;;;28.70;44.50;;;;;;5050257;28;20033;-61
2022/06/28 12:49:19;;;;;;;1.05;0.60;;;28.60;44.40;;;;;;5043897;28;20535;-61
2022/06/28 12:51:45;;;;;;;3.03;0.70;;;28.50;44.80;;;;;;5050337;28;20403;-61
2022/06/28 12:54:11;;;;;;;1.10;0.63;;;28.50;45.10;;;;;;5061645;28;20028;-61
2022/06/28 12:56:37;;;;;;;1.77;0.85;;;28.40;43.70;;;;;;5056667;28;20056;-61
2022/06/28 12:59:04;;;;;;;1.70;0.82;;;28.30;44.10;;;;;;5042258;28;20025;-61
2022/06/28 13:01:29;;;;;;;0.75;0.70;;;28.20;44.40;;;;;;5053896;28;20030;-60
2022/06/28 13:03:55;;;;;;;2.35;0.80;;;28.20;44.60;;;;;;5058432;28;20092;-61
2022/06/28 13:06:21;;;;;;;1.33;0.90;;;28.10;44.70;;;;;;5043268;28;20468;-61